sensor_id;sensor_type;location;lat;lon;timestamp;P1;durP1;ratioP1;P2;durP2;ratioP2
59028;SDS011;45919;51.420;5.454;2022-09-03T00:00:29;60.53;;;35.65;;
59028;SDS011;45919;51.420;5.454;2022-09-03T00:01:39;62.20;;;35.15;;
59028;SDS011;45919;51.420;5.454;2022-09-03T00:04:07;62.65;;;35.72;;
59028;SDS011;45919;51.420;5.454;2022-09-03T00:05:24;67.30;;;36.67;;
59028;SDS011;45919;51.420;5.454;2022-09-03T00:06:37;61.15;;;35.90;;
59028;SDS011;45919;51.420;5.454;2022-09-03T00:07:45;69.47;;;36.45;;
59028;SDS011;45919;51.420;5.454;2022-09-03T00:10:03;76.20;;;37.23;;
59028;SDS011;45919;51.420;5.454;2022-09-03T00:12:14;61.80;;;37.17;;
59028;SDS011;45919;51.420;5.454;2022-09-03T00:13:23;61.08;;;36.60;;
59028;SDS011;45919;51.420;5.454;2022-09-03T00:15:47;69.43;;;38.70;;
59028;SDS011;45919;51.420;5.454;2022-09-03T00:16:55;63.45;;;37.55;;
59028;SDS011;45919;51.420;5.454;2022-09-03T00:19:08;67.53;;;35.63;;
59028;SDS011;45919;51.420;5.454;2022-09-03T00:20:32;67.82;;;37.85;;
59028;SDS011;45919;51.420;5.454;2022-09-03T00:21:39;70.80;;;37.63;;
59028;SDS011;45919;51.420;5.454;2022-09-03T00:22:52;67.75;;;37.55;;
59028;SDS011;45919;51.420;5.454;2022-09-03T00:23:56;62.33;;;38.13;;
59028;SDS011;45919;51.420;5.454;2022-09-03T00:25:02;71.38;;;40.20;;
59028;SDS011;45919;51.420;5.454;2022-09-03T00:27:14;71.63;;;39.05;;
59028;SDS011;45919;51.420;5.454;2022-09-03T00:28:25;66.75;;;37.80;;
59028;SDS011;45919;51.420;5.454;2022-09-03T00:29:34;64.88;;;39.05;;
59028;SDS011;45919;51.420;5.454;2022-09-03T00:30:40;73.30;;;40.15;;
59028;SDS011;45919;51.420;5.454;2022-09-03T00:31:44;64.22;;;38.00;;
59028;SDS011;45919;51.420;5.454;2022-09-03T00:34:01;76.22;;;40.28;;
59028;SDS011;45919;51.420;5.454;2022-09-03T00:35:10;71.63;;;38.75;;
59028;SDS011;45919;51.420;5.454;2022-09-03T00:36:33;63.75;;;37.80;;
59028;SDS011;45919;51.420;5.454;2022-09-03T00:37:42;71.53;;;37.88;;
59028;SDS011;45919;51.420;5.454;2022-09-03T00:38:44;66.93;;;37.33;;
59028;SDS011;45919;51.420;5.454;2022-09-03T00:39:46;63.97;;;38.30;;
59028;SDS011;45919;51.420;5.454;2022-09-03T00:41:04;60.22;;;36.85;;
59028;SDS011;45919;51.420;5.454;2022-09-03T00:45:43;67.72;;;37.47;;
59028;SDS011;45919;51.420;5.454;2022-09-03T00:48:15;65.00;;;37.13;;
59028;SDS011;45919;51.420;5.454;2022-09-03T00:49:36;60.70;;;36.08;;
59028;SDS011;45919;51.420;5.454;2022-09-03T00:52:11;66.43;;;35.65;;
59028;SDS011;45919;51.420;5.454;2022-09-03T00:54:50;65.30;;;35.85;;
59028;SDS011;45919;51.420;5.454;2022-09-03T01:00:51;65.25;;;35.42;;
59028;SDS011;45919;51.420;5.454;2022-09-03T01:02:02;64.53;;;36.60;;
59028;SDS011;45919;51.420;5.454;2022-09-03T01:09:36;69.10;;;35.88;;
59028;SDS011;45919;51.420;5.454;2022-09-03T01:11:04;63.28;;;35.03;;
59028;SDS011;45919;51.420;5.454;2022-09-03T01:13:35;57.58;;;32.92;;
59028;SDS011;45919;51.420;5.454;2022-09-03T01:14:45;63.83;;;36.75;;
59028;SDS011;45919;51.420;5.454;2022-09-03T01:16:08;57.95;;;34.13;;
59028;SDS011;45919;51.420;5.454;2022-09-03T01:19:00;62.38;;;35.40;;
59028;SDS011;45919;51.420;5.454;2022-09-03T01:25:44;66.55;;;33.05;;
59028;SDS011;45919;51.420;5.454;2022-09-03T01:31:07;53.58;;;30.88;;
59028;SDS011;45919;51.420;5.454;2022-09-03T01:32:30;57.95;;;32.28;;
59028;SDS011;45919;51.420;5.454;2022-09-03T01:33:39;54.30;;;31.63;;
59028;SDS011;45919;51.420;5.454;2022-09-03T01:35:07;54.50;;;31.75;;
59028;SDS011;45919;51.420;5.454;2022-09-03T01:39:43;58.58;;;31.98;;
59028;SDS011;45919;51.420;5.454;2022-09-03T01:42:54;53.30;;;30.38;;
59028;SDS011;45919;51.420;5.454;2022-09-03T01:44:13;52.63;;;30.00;;
59028;SDS011;45919;51.420;5.454;2022-09-03T01:46:40;54.53;;;30.23;;
59028;SDS011;45919;51.420;5.454;2022-09-03T01:52:41;51.05;;;29.88;;
59028;SDS011;45919;51.420;5.454;2022-09-03T02:00:40;42.20;;;24.35;;
59028;SDS011;45919;51.420;5.454;2022-09-03T02:01:45;39.92;;;25.65;;
59028;SDS011;45919;51.420;5.454;2022-09-03T02:02:53;41.55;;;24.85;;
59028;SDS011;45919;51.420;5.454;2022-09-03T02:03:55;44.58;;;25.05;;
59028;SDS011;45919;51.420;5.454;2022-09-03T02:05:04;41.25;;;24.92;;
59028;SDS011;45919;51.420;5.454;2022-09-03T02:06:10;41.40;;;25.42;;
59028;SDS011;45919;51.420;5.454;2022-09-03T02:07:12;39.97;;;25.70;;
59028;SDS011;45919;51.420;5.454;2022-09-03T02:08:14;48.00;;;27.60;;
59028;SDS011;45919;51.420;5.454;2022-09-03T02:09:16;45.42;;;27.63;;
59028;SDS011;45919;51.420;5.454;2022-09-03T02:10:19;43.75;;;27.45;;
59028;SDS011;45919;51.420;5.454;2022-09-03T02:11:34;48.47;;;28.35;;
59028;SDS011;45919;51.420;5.454;2022-09-03T02:12:36;45.78;;;28.35;;
59028;SDS011;45919;51.420;5.454;2022-09-03T02:13:54;40.35;;;27.60;;
59028;SDS011;45919;51.420;5.454;2022-09-03T02:14:59;50.25;;;28.25;;
59028;SDS011;45919;51.420;5.454;2022-09-03T02:16:09;47.60;;;29.05;;
59028;SDS011;45919;51.420;5.454;2022-09-03T02:17:16;50.85;;;30.25;;
59028;SDS011;45919;51.420;5.454;2022-09-03T02:18:22;43.47;;;28.95;;
59028;SDS011;45919;51.420;5.454;2022-09-03T02:19:30;49.75;;;29.17;;
59028;SDS011;45919;51.420;5.454;2022-09-03T02:20:32;53.00;;;30.65;;
59028;SDS011;45919;51.420;5.454;2022-09-03T02:21:35;49.92;;;30.20;;
59028;SDS011;45919;51.420;5.454;2022-09-03T02:22:39;47.38;;;29.45;;
59028;SDS011;45919;51.420;5.454;2022-09-03T02:23:42;53.50;;;30.27;;
59028;SDS011;45919;51.420;5.454;2022-09-03T02:24:44;47.67;;;29.88;;
59028;SDS011;45919;51.420;5.454;2022-09-03T02:25:54;49.45;;;30.25;;
59028;SDS011;45919;51.420;5.454;2022-09-03T02:26:57;51.20;;;29.63;;
59028;SDS011;45919;51.420;5.454;2022-09-03T02:27:59;50.45;;;30.73;;
59028;SDS011;45919;51.420;5.454;2022-09-03T02:29:02;53.00;;;30.17;;
59028;SDS011;45919;51.420;5.454;2022-09-03T02:30:04;49.08;;;29.27;;
59028;SDS011;45919;51.420;5.454;2022-09-03T02:31:06;48.72;;;28.83;;
59028;SDS011;45919;51.420;5.454;2022-09-03T02:32:08;47.70;;;30.13;;
59028;SDS011;45919;51.420;5.454;2022-09-03T02:33:10;44.83;;;28.33;;
59028;SDS011;45919;51.420;5.454;2022-09-03T02:34:12;41.15;;;26.73;;
59028;SDS011;45919;51.420;5.454;2022-09-03T02:35:13;43.85;;;26.23;;
59028;SDS011;45919;51.420;5.454;2022-09-03T02:36:17;41.05;;;25.05;;
59028;SDS011;45919;51.420;5.454;2022-09-03T02:37:21;41.92;;;26.17;;
59028;SDS011;45919;51.420;5.454;2022-09-03T02:38:23;40.38;;;24.77;;
59028;SDS011;45919;51.420;5.454;2022-09-03T02:39:26;37.88;;;24.52;;
59028;SDS011;45919;51.420;5.454;2022-09-03T02:40:29;34.63;;;23.27;;
59028;SDS011;45919;51.420;5.454;2022-09-03T02:41:30;36.40;;;22.77;;
59028;SDS011;45919;51.420;5.454;2022-09-03T02:42:32;33.42;;;22.50;;
59028;SDS011;45919;51.420;5.454;2022-09-03T02:43:50;35.58;;;23.02;;
59028;SDS011;45919;51.420;5.454;2022-09-03T02:44:59;34.47;;;20.95;;
59028;SDS011;45919;51.420;5.454;2022-09-03T02:46:13;36.95;;;20.98;;
59028;SDS011;45919;51.420;5.454;2022-09-03T02:48:23;31.10;;;19.80;;
59028;SDS011;45919;51.420;5.454;2022-09-03T02:49:25;34.13;;;20.77;;
59028;SDS011;45919;51.420;5.454;2022-09-03T02:50:28;29.98;;;18.83;;
59028;SDS011;45919;51.420;5.454;2022-09-03T02:51:37;30.58;;;19.05;;
59028;SDS011;45919;51.420;5.454;2022-09-03T02:52:40;30.92;;;19.55;;
59028;SDS011;45919;51.420;5.454;2022-09-03T02:53:42;28.33;;;18.42;;
59028;SDS011;45919;51.420;5.454;2022-09-03T02:54:44;29.00;;;18.83;;
59028;SDS011;45919;51.420;5.454;2022-09-03T02:55:46;28.92;;;18.67;;
59028;SDS011;45919;51.420;5.454;2022-09-03T02:56:47;28.02;;;18.65;;
59028;SDS011;45919;51.420;5.454;2022-09-03T02:57:49;28.92;;;18.08;;
59028;SDS011;45919;51.420;5.454;2022-09-03T02:58:51;27.65;;;17.83;;
59028;SDS011;45919;51.420;5.454;2022-09-03T02:59:53;25.17;;;17.00;;
59028;SDS011;45919;51.420;5.454;2022-09-03T03:00:55;27.20;;;18.83;;
59028;SDS011;45919;51.420;5.454;2022-09-03T03:01:56;28.55;;;17.88;;
59028;SDS011;45919;51.420;5.454;2022-09-03T03:02:58;28.85;;;18.40;;
59028;SDS011;45919;51.420;5.454;2022-09-03T03:03:59;26.02;;;17.98;;
59028;SDS011;45919;51.420;5.454;2022-09-03T03:05:01;26.52;;;18.13;;
59028;SDS011;45919;51.420;5.454;2022-09-03T03:06:03;25.58;;;18.13;;
59028;SDS011;45919;51.420;5.454;2022-09-03T03:07:07;28.25;;;19.30;;
59028;SDS011;45919;51.420;5.454;2022-09-03T03:08:09;27.30;;;18.63;;
59028;SDS011;45919;51.420;5.454;2022-09-03T03:09:12;28.30;;;18.67;;
59028;SDS011;45919;51.420;5.454;2022-09-03T03:10:13;29.92;;;19.55;;
59028;SDS011;45919;51.420;5.454;2022-09-03T03:11:16;32.33;;;20.05;;
59028;SDS011;45919;51.420;5.454;2022-09-03T03:12:18;32.67;;;20.02;;
59028;SDS011;45919;51.420;5.454;2022-09-03T03:13:20;30.58;;;19.70;;
59028;SDS011;45919;51.420;5.454;2022-09-03T03:14:21;30.08;;;18.67;;
59028;SDS011;45919;51.420;5.454;2022-09-03T03:15:23;27.70;;;19.75;;
59028;SDS011;45919;51.420;5.454;2022-09-03T03:16:25;30.75;;;20.88;;
59028;SDS011;45919;51.420;5.454;2022-09-03T03:17:26;32.35;;;19.30;;
59028;SDS011;45919;51.420;5.454;2022-09-03T03:18:29;25.55;;;18.20;;
59028;SDS011;45919;51.420;5.454;2022-09-03T03:19:30;29.55;;;19.52;;
59028;SDS011;45919;51.420;5.454;2022-09-03T03:20:32;30.23;;;19.27;;
59028;SDS011;45919;51.420;5.454;2022-09-03T03:21:34;28.23;;;19.00;;
59028;SDS011;45919;51.420;5.454;2022-09-03T03:22:36;29.45;;;19.27;;
59028;SDS011;45919;51.420;5.454;2022-09-03T03:23:37;31.85;;;19.17;;
59028;SDS011;45919;51.420;5.454;2022-09-03T03:24:39;26.38;;;19.58;;
59028;SDS011;45919;51.420;5.454;2022-09-03T03:25:41;29.50;;;18.92;;
59028;SDS011;45919;51.420;5.454;2022-09-03T03:26:43;31.88;;;19.60;;
59028;SDS011;45919;51.420;5.454;2022-09-03T03:27:45;28.95;;;19.13;;
59028;SDS011;45919;51.420;5.454;2022-09-03T03:28:47;32.25;;;20.02;;
59028;SDS011;45919;51.420;5.454;2022-09-03T03:29:49;32.30;;;18.80;;
59028;SDS011;45919;51.420;5.454;2022-09-03T03:30:52;28.35;;;18.13;;
59028;SDS011;45919;51.420;5.454;2022-09-03T03:31:54;31.23;;;19.00;;
59028;SDS011;45919;51.420;5.454;2022-09-03T03:32:55;27.67;;;18.67;;
59028;SDS011;45919;51.420;5.454;2022-09-03T03:33:58;29.15;;;18.65;;
59028;SDS011;45919;51.420;5.454;2022-09-03T03:35:02;29.70;;;18.05;;
59028;SDS011;45919;51.420;5.454;2022-09-03T03:36:12;31.65;;;18.73;;
59028;SDS011;45919;51.420;5.454;2022-09-03T03:37:15;27.00;;;16.88;;
59028;SDS011;45919;51.420;5.454;2022-09-03T03:38:16;24.77;;;17.55;;
59028;SDS011;45919;51.420;5.454;2022-09-03T03:39:18;27.33;;;18.30;;
59028;SDS011;45919;51.420;5.454;2022-09-03T03:40:20;28.50;;;17.63;;
59028;SDS011;45919;51.420;5.454;2022-09-03T03:41:26;29.30;;;18.58;;
59028;SDS011;45919;51.420;5.454;2022-09-03T03:42:32;28.52;;;18.00;;
59028;SDS011;45919;51.420;5.454;2022-09-03T03:43:34;26.83;;;18.20;;
59028;SDS011;45919;51.420;5.454;2022-09-03T03:44:36;30.02;;;18.70;;
59028;SDS011;45919;51.420;5.454;2022-09-03T03:45:37;31.40;;;18.95;;
59028;SDS011;45919;51.420;5.454;2022-09-03T03:46:39;30.50;;;20.15;;
59028;SDS011;45919;51.420;5.454;2022-09-03T03:47:41;28.55;;;19.90;;
59028;SDS011;45919;51.420;5.454;2022-09-03T03:48:46;30.85;;;19.58;;
59028;SDS011;45919;51.420;5.454;2022-09-03T03:49:48;28.25;;;19.70;;
59028;SDS011;45919;51.420;5.454;2022-09-03T03:50:50;28.30;;;19.10;;
59028;SDS011;45919;51.420;5.454;2022-09-03T03:51:52;31.42;;;18.77;;
59028;SDS011;45919;51.420;5.454;2022-09-03T03:52:54;30.02;;;19.67;;
59028;SDS011;45919;51.420;5.454;2022-09-03T03:54:00;30.00;;;20.00;;
59028;SDS011;45919;51.420;5.454;2022-09-03T03:55:04;29.23;;;19.40;;
59028;SDS011;45919;51.420;5.454;2022-09-03T03:56:08;29.50;;;20.40;;
59028;SDS011;45919;51.420;5.454;2022-09-03T03:57:12;31.83;;;20.33;;
59028;SDS011;45919;51.420;5.454;2022-09-03T03:58:14;35.50;;;20.90;;
59028;SDS011;45919;51.420;5.454;2022-09-03T03:59:15;31.50;;;21.42;;
59028;SDS011;45919;51.420;5.454;2022-09-03T04:00:17;32.13;;;21.13;;
59028;SDS011;45919;51.420;5.454;2022-09-03T04:01:19;31.23;;;20.10;;
59028;SDS011;45919;51.420;5.454;2022-09-03T04:02:23;30.13;;;20.25;;
59028;SDS011;45919;51.420;5.454;2022-09-03T04:03:24;36.58;;;20.63;;
59028;SDS011;45919;51.420;5.454;2022-09-03T04:04:26;35.40;;;21.70;;
59028;SDS011;45919;51.420;5.454;2022-09-03T04:05:27;31.80;;;20.02;;
59028;SDS011;45919;51.420;5.454;2022-09-03T04:06:29;33.15;;;20.33;;
59028;SDS011;45919;51.420;5.454;2022-09-03T04:07:31;35.03;;;20.52;;
59028;SDS011;45919;51.420;5.454;2022-09-03T04:08:33;33.80;;;20.45;;
59028;SDS011;45919;51.420;5.454;2022-09-03T04:09:36;31.92;;;19.85;;
59028;SDS011;45919;51.420;5.454;2022-09-03T04:10:38;32.10;;;20.63;;
59028;SDS011;45919;51.420;5.454;2022-09-03T04:11:40;34.10;;;19.30;;
59028;SDS011;45919;51.420;5.454;2022-09-03T04:12:42;32.92;;;19.65;;
59028;SDS011;45919;51.420;5.454;2022-09-03T04:13:43;33.90;;;18.88;;
59028;SDS011;45919;51.420;5.454;2022-09-03T04:14:46;31.65;;;18.90;;
59028;SDS011;45919;51.420;5.454;2022-09-03T04:15:48;29.73;;;18.67;;
59028;SDS011;45919;51.420;5.454;2022-09-03T04:16:50;27.20;;;18.30;;
59028;SDS011;45919;51.420;5.454;2022-09-03T04:17:54;27.45;;;17.85;;
59028;SDS011;45919;51.420;5.454;2022-09-03T04:18:56;26.75;;;17.42;;
59028;SDS011;45919;51.420;5.454;2022-09-03T04:19:58;26.65;;;17.27;;
59028;SDS011;45919;51.420;5.454;2022-09-03T04:21:00;25.23;;;16.10;;
59028;SDS011;45919;51.420;5.454;2022-09-03T04:22:04;28.95;;;17.55;;
59028;SDS011;45919;51.420;5.454;2022-09-03T04:23:06;29.67;;;17.30;;
59028;SDS011;45919;51.420;5.454;2022-09-03T04:24:07;31.45;;;17.50;;
59028;SDS011;45919;51.420;5.454;2022-09-03T04:25:10;25.20;;;17.35;;
59028;SDS011;45919;51.420;5.454;2022-09-03T04:26:12;29.30;;;16.58;;
59028;SDS011;45919;51.420;5.454;2022-09-03T04:27:15;28.83;;;17.52;;
59028;SDS011;45919;51.420;5.454;2022-09-03T04:28:17;26.27;;;16.25;;
59028;SDS011;45919;51.420;5.454;2022-09-03T04:29:18;25.02;;;17.00;;
59028;SDS011;45919;51.420;5.454;2022-09-03T04:30:22;24.08;;;16.27;;
59028;SDS011;45919;51.420;5.454;2022-09-03T04:31:23;28.67;;;16.02;;
59028;SDS011;45919;51.420;5.454;2022-09-03T04:32:26;26.58;;;16.67;;
59028;SDS011;45919;51.420;5.454;2022-09-03T04:33:46;24.75;;;16.52;;
59028;SDS011;45919;51.420;5.454;2022-09-03T04:34:48;23.15;;;15.88;;
59028;SDS011;45919;51.420;5.454;2022-09-03T04:35:50;25.63;;;16.40;;
59028;SDS011;45919;51.420;5.454;2022-09-03T04:36:51;24.45;;;16.08;;
59028;SDS011;45919;51.420;5.454;2022-09-03T04:37:53;25.63;;;16.85;;
59028;SDS011;45919;51.420;5.454;2022-09-03T04:38:57;26.75;;;16.75;;
59028;SDS011;45919;51.420;5.454;2022-09-03T04:40:00;30.85;;;17.10;;
59028;SDS011;45919;51.420;5.454;2022-09-03T04:41:02;25.13;;;16.50;;
59028;SDS011;45919;51.420;5.454;2022-09-03T04:42:04;29.77;;;16.60;;
59028;SDS011;45919;51.420;5.454;2022-09-03T04:43:06;25.42;;;15.90;;
59028;SDS011;45919;51.420;5.454;2022-09-03T04:44:07;27.73;;;16.23;;
59028;SDS011;45919;51.420;5.454;2022-09-03T04:45:09;28.75;;;16.13;;
59028;SDS011;45919;51.420;5.454;2022-09-03T04:46:12;24.75;;;15.57;;
59028;SDS011;45919;51.420;5.454;2022-09-03T04:47:15;24.33;;;15.90;;
59028;SDS011;45919;51.420;5.454;2022-09-03T04:48:16;22.40;;;15.63;;
59028;SDS011;45919;51.420;5.454;2022-09-03T04:49:18;25.60;;;15.60;;
59028;SDS011;45919;51.420;5.454;2022-09-03T04:50:20;29.13;;;15.30;;
59028;SDS011;45919;51.420;5.454;2022-09-03T04:51:24;23.95;;;15.77;;
59028;SDS011;45919;51.420;5.454;2022-09-03T04:52:28;23.75;;;14.60;;
59028;SDS011;45919;51.420;5.454;2022-09-03T04:53:35;24.77;;;15.18;;
59028;SDS011;45919;51.420;5.454;2022-09-03T04:54:39;23.80;;;15.30;;
59028;SDS011;45919;51.420;5.454;2022-09-03T04:55:41;29.35;;;15.38;;
59028;SDS011;45919;51.420;5.454;2022-09-03T04:56:42;23.85;;;14.82;;
59028;SDS011;45919;51.420;5.454;2022-09-03T04:57:44;22.33;;;15.00;;
59028;SDS011;45919;51.420;5.454;2022-09-03T04:58:46;24.58;;;14.57;;
59028;SDS011;45919;51.420;5.454;2022-09-03T04:59:48;24.80;;;14.75;;
59028;SDS011;45919;51.420;5.454;2022-09-03T05:00:50;28.30;;;15.45;;
59028;SDS011;45919;51.420;5.454;2022-09-03T05:01:52;25.05;;;15.18;;
59028;SDS011;45919;51.420;5.454;2022-09-03T05:02:53;25.75;;;15.23;;
59028;SDS011;45919;51.420;5.454;2022-09-03T05:03:55;25.13;;;14.82;;
59028;SDS011;45919;51.420;5.454;2022-09-03T05:04:58;22.05;;;14.68;;
59028;SDS011;45919;51.420;5.454;2022-09-03T05:05:59;24.98;;;15.60;;
59028;SDS011;45919;51.420;5.454;2022-09-03T05:07:02;24.42;;;15.65;;
59028;SDS011;45919;51.420;5.454;2022-09-03T05:08:03;28.27;;;15.38;;
59028;SDS011;45919;51.420;5.454;2022-09-03T05:09:06;22.63;;;13.85;;
59028;SDS011;45919;51.420;5.454;2022-09-03T05:10:08;27.00;;;15.20;;
59028;SDS011;45919;51.420;5.454;2022-09-03T05:11:13;23.48;;;14.30;;
59028;SDS011;45919;51.420;5.454;2022-09-03T05:12:15;22.33;;;14.52;;
59028;SDS011;45919;51.420;5.454;2022-09-03T05:13:17;20.70;;;14.63;;
59028;SDS011;45919;51.420;5.454;2022-09-03T05:14:19;25.17;;;14.52;;
59028;SDS011;45919;51.420;5.454;2022-09-03T05:15:21;23.77;;;14.43;;
59028;SDS011;45919;51.420;5.454;2022-09-03T05:16:23;27.17;;;14.95;;
59028;SDS011;45919;51.420;5.454;2022-09-03T05:17:26;22.95;;;14.43;;
59028;SDS011;45919;51.420;5.454;2022-09-03T05:18:27;25.63;;;14.23;;
59028;SDS011;45919;51.420;5.454;2022-09-03T05:19:30;26.88;;;15.70;;
59028;SDS011;45919;51.420;5.454;2022-09-03T05:20:31;24.38;;;14.95;;
59028;SDS011;45919;51.420;5.454;2022-09-03T05:21:33;26.15;;;15.13;;
59028;SDS011;45919;51.420;5.454;2022-09-03T05:22:39;26.73;;;15.00;;
59028;SDS011;45919;51.420;5.454;2022-09-03T05:23:41;28.67;;;15.70;;
59028;SDS011;45919;51.420;5.454;2022-09-03T05:24:45;22.40;;;14.75;;
59028;SDS011;45919;51.420;5.454;2022-09-03T05:25:53;23.00;;;14.90;;
59028;SDS011;45919;51.420;5.454;2022-09-03T05:26:58;26.65;;;15.18;;
59028;SDS011;45919;51.420;5.454;2022-09-03T05:28:00;27.15;;;15.60;;
59028;SDS011;45919;51.420;5.454;2022-09-03T05:29:02;26.45;;;15.70;;
59028;SDS011;45919;51.420;5.454;2022-09-03T05:30:08;28.52;;;16.25;;
59028;SDS011;45919;51.420;5.454;2022-09-03T05:31:14;23.85;;;14.57;;
59028;SDS011;45919;51.420;5.454;2022-09-03T05:32:17;24.73;;;14.15;;
59028;SDS011;45919;51.420;5.454;2022-09-03T05:33:19;26.05;;;14.95;;
59028;SDS011;45919;51.420;5.454;2022-09-03T05:34:23;26.73;;;15.02;;
59028;SDS011;45919;51.420;5.454;2022-09-03T05:35:25;26.40;;;14.32;;
59028;SDS011;45919;51.420;5.454;2022-09-03T05:36:28;25.25;;;14.80;;
59028;SDS011;45919;51.420;5.454;2022-09-03T05:37:31;23.27;;;14.77;;
59028;SDS011;45919;51.420;5.454;2022-09-03T05:38:33;28.17;;;14.40;;
59028;SDS011;45919;51.420;5.454;2022-09-03T05:39:35;23.33;;;14.93;;
59028;SDS011;45919;51.420;5.454;2022-09-03T05:40:36;22.40;;;14.60;;
59028;SDS011;45919;51.420;5.454;2022-09-03T05:41:38;25.90;;;15.05;;
59028;SDS011;45919;51.420;5.454;2022-09-03T05:42:40;26.55;;;15.40;;
59028;SDS011;45919;51.420;5.454;2022-09-03T05:43:41;30.23;;;16.00;;
59028;SDS011;45919;51.420;5.454;2022-09-03T05:44:43;23.58;;;14.52;;
59028;SDS011;45919;51.420;5.454;2022-09-03T05:45:45;25.65;;;15.05;;
59028;SDS011;45919;51.420;5.454;2022-09-03T05:46:47;23.27;;;14.27;;
59028;SDS011;45919;51.420;5.454;2022-09-03T05:47:50;25.45;;;14.63;;
59028;SDS011;45919;51.420;5.454;2022-09-03T05:48:51;25.00;;;13.98;;
59028;SDS011;45919;51.420;5.454;2022-09-03T05:49:53;23.73;;;14.18;;
59028;SDS011;45919;51.420;5.454;2022-09-03T05:51:13;25.80;;;14.45;;
59028;SDS011;45919;51.420;5.454;2022-09-03T05:52:17;22.58;;;14.23;;
59028;SDS011;45919;51.420;5.454;2022-09-03T05:53:21;24.25;;;13.45;;
59028;SDS011;45919;51.420;5.454;2022-09-03T05:54:23;25.48;;;14.15;;
59028;SDS011;45919;51.420;5.454;2022-09-03T05:55:25;25.38;;;13.88;;
59028;SDS011;45919;51.420;5.454;2022-09-03T05:56:29;23.50;;;14.20;;
59028;SDS011;45919;51.420;5.454;2022-09-03T05:57:32;21.85;;;12.68;;
59028;SDS011;45919;51.420;5.454;2022-09-03T05:58:35;21.05;;;13.13;;
59028;SDS011;45919;51.420;5.454;2022-09-03T05:59:39;21.85;;;12.88;;
59028;SDS011;45919;51.420;5.454;2022-09-03T06:00:41;20.38;;;12.55;;
59028;SDS011;45919;51.420;5.454;2022-09-03T06:01:43;21.52;;;12.82;;
59028;SDS011;45919;51.420;5.454;2022-09-03T06:02:50;21.40;;;11.95;;
59028;SDS011;45919;51.420;5.454;2022-09-03T06:03:54;20.38;;;12.68;;
59028;SDS011;45919;51.420;5.454;2022-09-03T06:04:55;15.70;;;11.18;;
59028;SDS011;45919;51.420;5.454;2022-09-03T06:05:57;19.65;;;12.32;;
59028;SDS011;45919;51.420;5.454;2022-09-03T06:06:59;20.48;;;11.80;;
59028;SDS011;45919;51.420;5.454;2022-09-03T06:08:01;22.40;;;11.82;;
59028;SDS011;45919;51.420;5.454;2022-09-03T06:09:03;17.45;;;10.93;;
59028;SDS011;45919;51.420;5.454;2022-09-03T06:10:07;18.38;;;11.38;;
59028;SDS011;45919;51.420;5.454;2022-09-03T06:11:09;19.25;;;11.60;;
59028;SDS011;45919;51.420;5.454;2022-09-03T06:12:11;20.42;;;11.90;;
59028;SDS011;45919;51.420;5.454;2022-09-03T06:13:13;15.40;;;10.98;;
59028;SDS011;45919;51.420;5.454;2022-09-03T06:14:15;16.08;;;10.65;;
59028;SDS011;45919;51.420;5.454;2022-09-03T06:15:17;19.48;;;10.70;;
59028;SDS011;45919;51.420;5.454;2022-09-03T06:16:18;15.38;;;10.27;;
59028;SDS011;45919;51.420;5.454;2022-09-03T06:17:21;22.27;;;10.48;;
59028;SDS011;45919;51.420;5.454;2022-09-03T06:18:23;17.58;;;10.45;;
59028;SDS011;45919;51.420;5.454;2022-09-03T06:19:25;17.35;;;10.30;;
59028;SDS011;45919;51.420;5.454;2022-09-03T06:20:27;11.90;;;9.05;;
59028;SDS011;45919;51.420;5.454;2022-09-03T06:21:29;13.25;;;9.70;;
59028;SDS011;45919;51.420;5.454;2022-09-03T06:22:30;14.48;;;9.43;;
59028;SDS011;45919;51.420;5.454;2022-09-03T06:23:33;14.75;;;9.15;;
59028;SDS011;45919;51.420;5.454;2022-09-03T06:24:35;15.23;;;9.38;;
59028;SDS011;45919;51.420;5.454;2022-09-03T06:25:37;13.50;;;9.07;;
59028;SDS011;45919;51.420;5.454;2022-09-03T06:26:39;12.88;;;8.43;;
59028;SDS011;45919;51.420;5.454;2022-09-03T06:27:40;12.25;;;8.63;;
59028;SDS011;45919;51.420;5.454;2022-09-03T06:28:42;11.05;;;7.80;;
59028;SDS011;45919;51.420;5.454;2022-09-03T06:29:44;12.20;;;8.07;;
59028;SDS011;45919;51.420;5.454;2022-09-03T06:30:46;10.35;;;8.20;;
59028;SDS011;45919;51.420;5.454;2022-09-03T06:31:48;13.75;;;8.32;;
59028;SDS011;45919;51.420;5.454;2022-09-03T06:32:51;10.48;;;7.72;;
59028;SDS011;45919;51.420;5.454;2022-09-03T06:33:52;10.73;;;7.53;;
59028;SDS011;45919;51.420;5.454;2022-09-03T06:34:54;12.27;;;7.60;;
59028;SDS011;45919;51.420;5.454;2022-09-03T06:35:56;10.88;;;8.00;;
59028;SDS011;45919;51.420;5.454;2022-09-03T06:36:58;10.65;;;7.40;;
59028;SDS011;45919;51.420;5.454;2022-09-03T06:38:00;9.82;;;7.22;;
59028;SDS011;45919;51.420;5.454;2022-09-03T06:39:02;10.13;;;7.60;;
59028;SDS011;45919;51.420;5.454;2022-09-03T06:40:04;10.70;;;6.93;;
59028;SDS011;45919;51.420;5.454;2022-09-03T06:41:10;9.82;;;7.22;;
59028;SDS011;45919;51.420;5.454;2022-09-03T06:42:21;9.07;;;6.65;;
59028;SDS011;45919;51.420;5.454;2022-09-03T06:43:24;8.93;;;6.70;;
59028;SDS011;45919;51.420;5.454;2022-09-03T06:44:26;9.32;;;6.63;;
59028;SDS011;45919;51.420;5.454;2022-09-03T06:45:29;9.95;;;6.78;;
59028;SDS011;45919;51.420;5.454;2022-09-03T06:46:32;10.90;;;6.38;;
59028;SDS011;45919;51.420;5.454;2022-09-03T06:47:35;9.02;;;6.50;;
59028;SDS011;45919;51.420;5.454;2022-09-03T06:48:37;8.82;;;5.95;;
59028;SDS011;45919;51.420;5.454;2022-09-03T06:49:40;7.43;;;6.60;;
59028;SDS011;45919;51.420;5.454;2022-09-03T06:50:43;8.57;;;6.40;;
59028;SDS011;45919;51.420;5.454;2022-09-03T06:51:44;9.85;;;6.65;;
59028;SDS011;45919;51.420;5.454;2022-09-03T06:52:52;7.57;;;6.03;;
59028;SDS011;45919;51.420;5.454;2022-09-03T06:54:15;8.55;;;6.28;;
59028;SDS011;45919;51.420;5.454;2022-09-03T06:55:16;11.48;;;6.05;;
59028;SDS011;45919;51.420;5.454;2022-09-03T06:56:19;9.57;;;6.25;;
59028;SDS011;45919;51.420;5.454;2022-09-03T06:57:26;8.45;;;6.20;;
59028;SDS011;45919;51.420;5.454;2022-09-03T06:58:28;8.05;;;6.50;;
59028;SDS011;45919;51.420;5.454;2022-09-03T06:59:31;7.85;;;6.15;;
59028;SDS011;45919;51.420;5.454;2022-09-03T07:00:33;7.47;;;6.30;;
59028;SDS011;45919;51.420;5.454;2022-09-03T07:01:35;9.18;;;6.38;;
59028;SDS011;45919;51.420;5.454;2022-09-03T07:02:41;8.40;;;6.47;;
59028;SDS011;45919;51.420;5.454;2022-09-03T07:03:45;7.68;;;6.05;;
59028;SDS011;45919;51.420;5.454;2022-09-03T07:04:49;6.65;;;6.00;;
59028;SDS011;45919;51.420;5.454;2022-09-03T07:05:50;8.50;;;5.97;;
59028;SDS011;45919;51.420;5.454;2022-09-03T07:06:52;7.30;;;5.95;;
59028;SDS011;45919;51.420;5.454;2022-09-03T07:07:53;7.32;;;6.15;;
59028;SDS011;45919;51.420;5.454;2022-09-03T07:08:55;8.23;;;6.40;;
59028;SDS011;45919;51.420;5.454;2022-09-03T07:09:58;7.05;;;6.18;;
59028;SDS011;45919;51.420;5.454;2022-09-03T07:11:00;7.60;;;6.10;;
59028;SDS011;45919;51.420;5.454;2022-09-03T07:12:06;8.23;;;5.93;;
59028;SDS011;45919;51.420;5.454;2022-09-03T07:13:08;10.27;;;6.28;;
59028;SDS011;45919;51.420;5.454;2022-09-03T07:14:09;8.85;;;6.20;;
59028;SDS011;45919;51.420;5.454;2022-09-03T07:15:11;11.02;;;6.07;;
59028;SDS011;45919;51.420;5.454;2022-09-03T07:16:18;7.20;;;6.50;;